»·PEaware :: N3131J KSNA-46CN

N3131J :: KSNA-46CN

FLIGHT INFORMATION

Flight Status: Arrived
Operator: Privately registered:
United States
More flights under this callsign
Pilot: Carson T. (20437)
Aircraft: CESSNA 172 SKYHAWK
(C172)
More flights by this aircraft type
Origin: KSNA John Wayne-Orange Co
United States
Destination: 46CN Crystal Airport
United States
More flights between these airports :: More routes between these airports
Route: KCNO
File this flight plan on PilotEdge
Remarks:
Altitude:
(Current/Filed)
5,500ft
Speed:
(Current/Filed)
120kts
Departed: 23-Oct-18 06:37 PM
Arrived: 23-Oct-18 07:16 PM
Distance/Time
Traveled:
40nm/0:39
Distance/Time
To Go:
Arrived

Flight Plot

Page will automatically refresh every two minutes.

Flight plan parsing failed; only flown route is shown


Map Options




Map Legend


Flown Route
Filed Route
Departure Airport
Arrival Airport
Navaid (VOR, NDB)
Fix

Horizontal Profiles

Position Reports

Time Latitude Longitude Heading Altitude Ground
Speed
23-Oct-18 18:32 33.676691 -117.871597 28 60ft 0kts
23-Oct-18 18:33 33.676691 -117.871597 28 60ft 0kts
23-Oct-18 18:34 33.676691 -117.871597 28 60ft 0kts
23-Oct-18 18:35 33.676691 -117.871597 28 60ft 0kts
23-Oct-18 18:36 33.676691 -117.869686 27 60ft 14kts
23-Oct-18 18:37 33.680494 -117.867460 26 60ft 14kts
23-Oct-18 18:38 33.681206 -117.866431 115 60ft 0kts
23-Oct-18 18:39 33.676444 -117.868329 207 63ft 78kts
23-Oct-18 18:40 33.654387 -117.876893 135 691ft 95kts
23-Oct-18 18:41 33.652464 -117.844563 86 1295ft 100kts
23-Oct-18 18:42 33.653938 -117.810917 85 1895ft 101kts
23-Oct-18 18:43 33.656985 -117.777209 71 2447ft 102kts
23-Oct-18 18:44 33.677382 -117.754568 31 2974ft 102kts
23-Oct-18 18:45 33.700447 -117.736523 31 3611ft 95kts
23-Oct-18 18:46 33.721321 -117.719624 31 4299ft 87kts
23-Oct-18 18:47 33.740563 -117.703502 31 4930ft 86kts
23-Oct-18 18:48 33.761130 -117.685939 31 5436ft 94kts
23-Oct-18 18:49 33.785456 -117.664943 32 5496ft 117kts
23-Oct-18 18:50 33.813128 -117.643599 25 5495ft 119kts
23-Oct-18 18:51 33.842059 -117.624006 25 5497ft 120kts
23-Oct-18 18:52 33.872100 -117.607251 18 5494ft 118kts
23-Oct-18 18:53 33.901939 -117.591010 21 5496ft 117kts
23-Oct-18 18:54 33.932122 -117.577470 11 5497ft 116kts
23-Oct-18 18:55 33.963080 -117.567181 11 5499ft 116kts
23-Oct-18 18:56 33.994265 -117.556658 10 5498ft 117kts
23-Oct-18 18:57 34.025606 -117.545835 11 5498ft 118kts
23-Oct-18 18:58 34.056011 -117.529998 21 5499ft 120kts
23-Oct-18 18:59 34.085761 -117.512054 21 5501ft 120kts
23-Oct-18 19:00 34.113982 -117.491855 28 5505ft 122kts
23-Oct-18 19:01 34.144333 -117.475240 3 5507ft 120kts
23-Oct-18 19:02 34.172046 -117.470975 3 5508ft 121kts
23-Oct-18 19:03 34.210596 -117.465109 3 5510ft 121kts
23-Oct-18 19:04 34.234950 -117.475798 324 5509ft 118kts
23-Oct-18 19:05 34.271008 -117.490918 340 5523ft 118kts
23-Oct-18 19:06 34.296744 -117.501773 328 5534ft 118kts
23-Oct-18 19:07 34.325967 -117.531842 318 5547ft 119kts
23-Oct-18 19:08 34.346574 -117.554380 318 5555ft 120kts
23-Oct-18 19:09 34.371467 -117.581477 318 5569ft 121kts
23-Oct-18 19:10 34.393567 -117.612024 298 5575ft 122kts
23-Oct-18 19:11 34.409551 -117.648645 298 5572ft 123kts
23-Oct-18 19:12 34.425576 -117.685778 298 5404ft 127kts
23-Oct-18 19:13 34.440706 -117.720826 298 5105ft 109kts
23-Oct-18 19:14 34.455061 -117.754230 299 4830ft 113kts
23-Oct-18 19:15 34.471079 -117.787431 307 4510ft 114kts
23-Oct-18 19:16 34.483841 -117.817120 283 3940ft 85kts
23-Oct-18 19:17 34.483095 -117.838022 166 3430ft 75kts
23-Oct-18 19:18 34.484753 -117.821850 87 3416ft 28kts
23-Oct-18 19:19 34.484746 -117.821528 270 3416ft 0kts
23-Oct-18 19:20 34.484746 -117.821528 270 3416ft 0kts
23-Oct-18 19:21 34.484793 -117.832570 272 3505ft 77kts
23-Oct-18 19:22 34.497369 -117.851604 315 3985ft 87kts
23-Oct-18 19:23 34.500084 -117.877658 227 4504ft 97kts
23-Oct-18 19:24 34.483408 -117.902611 227 5154ft 90kts
23-Oct-18 19:25 34.468761 -117.924684 227 5837ft 76kts
23-Oct-18 19:26 34.455111 -117.934995 129 6328ft 64kts
23-Oct-18 19:27 34.443303 -117.919951 135 6753ft 62kts
23-Oct-18 19:28 34.429033 -117.906532 140 7099ft 72kts
23-Oct-18 19:29 34.410668 -117.891040 142 7449ft 84kts
23-Oct-18 19:30 34.391657 -117.876700 159 7932ft 75kts
23-Oct-18 19:31 34.368358 -117.874411 178 8293ft 91kts
23-Oct-18 19:32 34.338844 -117.869475 161 8263ft 127kts

Navigation Log

Ident Type
Flight plan parsing failed, navigation log unavailable